sensor_id;sensor_type;location;lat;lon;timestamp;P1;durP1;ratioP1;P2;durP2;ratioP2
21360;SDS011;10839;43.206;23.550;2023-09-18T00:00:26;15.73;;;9.88;;
21360;SDS011;10839;43.206;23.550;2023-09-18T00:02:52;18.73;;;10.13;;
21360;SDS011;10839;43.206;23.550;2023-09-18T00:05:18;15.55;;;10.13;;
21360;SDS011;10839;43.206;23.550;2023-09-18T00:07:44;17.33;;;9.38;;
21360;SDS011;10839;43.206;23.550;2023-09-18T00:10:10;15.38;;;10.10;;
21360;SDS011;10839;43.206;23.550;2023-09-18T00:12:37;17.23;;;10.57;;
21360;SDS011;10839;43.206;23.550;2023-09-18T00:15:04;13.43;;;9.77;;
21360;SDS011;10839;43.206;23.550;2023-09-18T00:17:30;14.82;;;10.48;;
21360;SDS011;10839;43.206;23.550;2023-09-18T00:19:56;13.48;;;9.77;;
21360;SDS011;10839;43.206;23.550;2023-09-18T00:22:22;18.45;;;10.18;;
21360;SDS011;10839;43.206;23.550;2023-09-18T00:24:49;15.20;;;10.13;;
21360;SDS011;10839;43.206;23.550;2023-09-18T00:27:15;21.50;;;11.93;;
21360;SDS011;10839;43.206;23.550;2023-09-18T00:29:42;14.02;;;10.20;;
21360;SDS011;10839;43.206;23.550;2023-09-18T00:32:08;16.02;;;10.10;;
21360;SDS011;10839;43.206;23.550;2023-09-18T00:34:34;13.60;;;10.65;;
21360;SDS011;10839;43.206;23.550;2023-09-18T00:37:00;15.80;;;10.02;;
21360;SDS011;10839;43.206;23.550;2023-09-18T00:39:26;14.98;;;10.45;;
21360;SDS011;10839;43.206;23.550;2023-09-18T00:41:52;15.10;;;11.32;;
21360;SDS011;10839;43.206;23.550;2023-09-18T00:44:22;17.42;;;10.38;;
21360;SDS011;10839;43.206;23.550;2023-09-18T00:46:51;18.70;;;10.57;;
21360;SDS011;10839;43.206;23.550;2023-09-18T00:49:19;14.25;;;11.10;;
21360;SDS011;10839;43.206;23.550;2023-09-18T00:51:47;13.40;;;10.25;;
21360;SDS011;10839;43.206;23.550;2023-09-18T00:54:15;20.02;;;12.07;;
21360;SDS011;10839;43.206;23.550;2023-09-18T00:56:47;15.80;;;11.55;;
21360;SDS011;10839;43.206;23.550;2023-09-18T00:59:19;14.73;;;11.73;;
21360;SDS011;10839;43.206;23.550;2023-09-18T01:01:46;13.85;;;10.48;;
21360;SDS011;10839;43.206;23.550;2023-09-18T01:04:16;14.23;;;10.68;;
21360;SDS011;10839;43.206;23.550;2023-09-18T01:06:42;15.20;;;11.05;;
21360;SDS011;10839;43.206;23.550;2023-09-18T01:09:09;20.65;;;11.93;;
21360;SDS011;10839;43.206;23.550;2023-09-18T01:11:51;15.93;;;11.38;;
21360;SDS011;10839;43.206;23.550;2023-09-18T01:17:30;15.48;;;11.00;;
21360;SDS011;10839;43.206;23.550;2023-09-18T01:22:31;14.23;;;10.55;;
21360;SDS011;10839;43.206;23.550;2023-09-18T01:24:57;18.25;;;11.00;;
21360;SDS011;10839;43.206;23.550;2023-09-18T01:27:24;15.23;;;10.90;;
21360;SDS011;10839;43.206;23.550;2023-09-18T01:29:50;13.50;;;11.00;;
21360;SDS011;10839;43.206;23.550;2023-09-18T01:32:17;17.08;;;11.80;;
21360;SDS011;10839;43.206;23.550;2023-09-18T01:34:47;20.30;;;11.00;;
21360;SDS011;10839;43.206;23.550;2023-09-18T01:37:15;17.83;;;11.30;;
21360;SDS011;10839;43.206;23.550;2023-09-18T01:39:43;14.32;;;11.32;;
21360;SDS011;10839;43.206;23.550;2023-09-18T01:42:11;15.45;;;10.77;;
21360;SDS011;10839;43.206;23.550;2023-09-18T01:44:37;17.05;;;11.48;;
21360;SDS011;10839;43.206;23.550;2023-09-18T01:47:07;15.60;;;11.02;;
21360;SDS011;10839;43.206;23.550;2023-09-18T01:49:36;19.23;;;11.75;;
21360;SDS011;10839;43.206;23.550;2023-09-18T01:52:03;14.57;;;10.70;;
21360;SDS011;10839;43.206;23.550;2023-09-18T01:54:30;14.80;;;10.50;;
21360;SDS011;10839;43.206;23.550;2023-09-18T01:56:57;14.77;;;10.40;;
21360;SDS011;10839;43.206;23.550;2023-09-18T01:59:24;18.05;;;10.68;;
21360;SDS011;10839;43.206;23.550;2023-09-18T02:01:50;15.50;;;10.23;;
21360;SDS011;10839;43.206;23.550;2023-09-18T02:04:17;14.95;;;11.15;;
21360;SDS011;10839;43.206;23.550;2023-09-18T02:06:44;18.17;;;10.73;;
21360;SDS011;10839;43.206;23.550;2023-09-18T02:09:13;16.42;;;11.32;;
21360;SDS011;10839;43.206;23.550;2023-09-18T02:11:40;27.13;;;19.38;;
21360;SDS011;10839;43.206;23.550;2023-09-18T02:14:07;16.08;;;11.82;;
21360;SDS011;10839;43.206;23.550;2023-09-18T02:16:39;15.93;;;10.93;;
21360;SDS011;10839;43.206;23.550;2023-09-18T02:19:06;20.30;;;11.77;;
21360;SDS011;10839;43.206;23.550;2023-09-18T02:21:34;13.50;;;11.32;;
21360;SDS011;10839;43.206;23.550;2023-09-18T02:24:00;15.55;;;11.52;;
21360;SDS011;10839;43.206;23.550;2023-09-18T02:26:27;15.45;;;11.45;;
21360;SDS011;10839;43.206;23.550;2023-09-18T02:28:54;21.08;;;12.38;;
21360;SDS011;10839;43.206;23.550;2023-09-18T02:31:21;21.95;;;11.63;;
21360;SDS011;10839;43.206;23.550;2023-09-18T02:33:48;14.65;;;10.35;;
21360;SDS011;10839;43.206;23.550;2023-09-18T02:36:14;18.58;;;11.57;;
21360;SDS011;10839;43.206;23.550;2023-09-18T02:38:41;14.50;;;11.38;;
21360;SDS011;10839;43.206;23.550;2023-09-18T02:41:08;25.30;;;19.48;;
21360;SDS011;10839;43.206;23.550;2023-09-18T02:43:34;16.10;;;10.77;;
21360;SDS011;10839;43.206;23.550;2023-09-18T02:46:01;18.63;;;11.32;;
21360;SDS011;10839;43.206;23.550;2023-09-18T02:48:26;18.50;;;11.43;;
21360;SDS011;10839;43.206;23.550;2023-09-18T02:50:52;15.98;;;11.13;;
21360;SDS011;10839;43.206;23.550;2023-09-18T02:53:19;17.73;;;11.18;;
21360;SDS011;10839;43.206;23.550;2023-09-18T02:55:48;16.23;;;12.13;;
21360;SDS011;10839;43.206;23.550;2023-09-18T02:58:14;16.00;;;11.32;;
21360;SDS011;10839;43.206;23.550;2023-09-18T03:00:43;15.30;;;11.88;;
21360;SDS011;10839;43.206;23.550;2023-09-18T03:03:11;17.40;;;13.35;;
21360;SDS011;10839;43.206;23.550;2023-09-18T03:05:37;18.35;;;12.18;;
21360;SDS011;10839;43.206;23.550;2023-09-18T03:08:04;23.20;;;14.13;;
21360;SDS011;10839;43.206;23.550;2023-09-18T03:10:33;20.98;;;14.38;;
21360;SDS011;10839;43.206;23.550;2023-09-18T03:13:01;17.38;;;12.60;;
21360;SDS011;10839;43.206;23.550;2023-09-18T03:15:29;14.90;;;12.63;;
21360;SDS011;10839;43.206;23.550;2023-09-18T03:17:57;17.20;;;12.75;;
21360;SDS011;10839;43.206;23.550;2023-09-18T03:20:27;16.63;;;12.68;;
21360;SDS011;10839;43.206;23.550;2023-09-18T03:22:56;17.75;;;11.93;;
21360;SDS011;10839;43.206;23.550;2023-09-18T03:25:24;18.75;;;12.20;;
21360;SDS011;10839;43.206;23.550;2023-09-18T03:27:53;18.67;;;12.32;;
21360;SDS011;10839;43.206;23.550;2023-09-18T03:30:24;17.30;;;11.50;;
21360;SDS011;10839;43.206;23.550;2023-09-18T03:32:51;18.63;;;12.18;;
21360;SDS011;10839;43.206;23.550;2023-09-18T03:35:19;17.08;;;12.00;;
21360;SDS011;10839;43.206;23.550;2023-09-18T03:37:47;20.63;;;12.02;;
21360;SDS011;10839;43.206;23.550;2023-09-18T03:40:16;19.58;;;13.43;;
21360;SDS011;10839;43.206;23.550;2023-09-18T03:42:43;18.60;;;13.48;;
21360;SDS011;10839;43.206;23.550;2023-09-18T03:45:10;19.02;;;13.55;;
21360;SDS011;10839;43.206;23.550;2023-09-18T03:47:40;22.17;;;13.70;;
21360;SDS011;10839;43.206;23.550;2023-09-18T03:50:07;24.35;;;18.05;;
21360;SDS011;10839;43.206;23.550;2023-09-18T03:52:36;25.10;;;17.25;;
21360;SDS011;10839;43.206;23.550;2023-09-18T03:55:04;23.65;;;17.63;;
21360;SDS011;10839;43.206;23.550;2023-09-18T03:57:31;27.90;;;19.13;;
21360;SDS011;10839;43.206;23.550;2023-09-18T03:59:56;25.27;;;18.50;;
21360;SDS011;10839;43.206;23.550;2023-09-18T04:02:23;24.98;;;18.33;;
21360;SDS011;10839;43.206;23.550;2023-09-18T04:04:51;24.40;;;17.95;;
21360;SDS011;10839;43.206;23.550;2023-09-18T04:07:18;22.42;;;17.20;;
21360;SDS011;10839;43.206;23.550;2023-09-18T04:09:45;23.55;;;17.40;;
21360;SDS011;10839;43.206;23.550;2023-09-18T04:12:11;27.27;;;18.13;;
21360;SDS011;10839;43.206;23.550;2023-09-18T04:14:37;24.40;;;16.63;;
21360;SDS011;10839;43.206;23.550;2023-09-18T04:17:03;26.77;;;17.77;;
21360;SDS011;10839;43.206;23.550;2023-09-18T04:19:29;23.38;;;17.98;;
21360;SDS011;10839;43.206;23.550;2023-09-18T04:21:55;29.65;;;20.58;;
21360;SDS011;10839;43.206;23.550;2023-09-18T04:24:21;32.60;;;20.02;;
21360;SDS011;10839;43.206;23.550;2023-09-18T04:26:48;29.00;;;19.80;;
21360;SDS011;10839;43.206;23.550;2023-09-18T04:29:16;35.00;;;20.50;;
21360;SDS011;10839;43.206;23.550;2023-09-18T04:31:43;42.13;;;24.13;;
21360;SDS011;10839;43.206;23.550;2023-09-18T04:34:09;43.65;;;24.23;;
21360;SDS011;10839;43.206;23.550;2023-09-18T04:36:36;37.13;;;23.25;;
21360;SDS011;10839;43.206;23.550;2023-09-18T04:39:04;31.55;;;21.65;;
21360;SDS011;10839;43.206;23.550;2023-09-18T04:41:32;31.58;;;21.10;;
21360;SDS011;10839;43.206;23.550;2023-09-18T04:43:59;33.00;;;20.75;;
21360;SDS011;10839;43.206;23.550;2023-09-18T04:46:26;32.42;;;19.73;;
21360;SDS011;10839;43.206;23.550;2023-09-18T04:48:52;30.05;;;18.38;;
21360;SDS011;10839;43.206;23.550;2023-09-18T04:51:17;30.13;;;18.95;;
21360;SDS011;10839;43.206;23.550;2023-09-18T04:53:44;33.30;;;19.08;;
21360;SDS011;10839;43.206;23.550;2023-09-18T04:56:10;32.95;;;19.73;;
21360;SDS011;10839;43.206;23.550;2023-09-18T04:58:37;38.13;;;21.30;;
21360;SDS011;10839;43.206;23.550;2023-09-18T05:01:03;31.08;;;19.25;;
21360;SDS011;10839;43.206;23.550;2023-09-18T05:03:35;29.65;;;17.98;;
21360;SDS011;10839;43.206;23.550;2023-09-18T05:06:01;30.92;;;18.65;;
21360;SDS011;10839;43.206;23.550;2023-09-18T05:08:28;30.25;;;18.88;;
21360;SDS011;10839;43.206;23.550;2023-09-18T05:10:54;30.67;;;18.63;;
21360;SDS011;10839;43.206;23.550;2023-09-18T05:13:20;29.17;;;17.92;;
21360;SDS011;10839;43.206;23.550;2023-09-18T05:15:46;21.40;;;16.02;;
21360;SDS011;10839;43.206;23.550;2023-09-18T05:18:12;22.13;;;15.05;;
21360;SDS011;10839;43.206;23.550;2023-09-18T05:20:39;23.83;;;15.80;;
21360;SDS011;10839;43.206;23.550;2023-09-18T05:23:05;19.60;;;15.10;;
21360;SDS011;10839;43.206;23.550;2023-09-18T05:25:32;25.30;;;15.93;;
21360;SDS011;10839;43.206;23.550;2023-09-18T05:28:06;23.85;;;17.23;;
21360;SDS011;10839;43.206;23.550;2023-09-18T05:30:33;29.65;;;15.55;;
21360;SDS011;10839;43.206;23.550;2023-09-18T05:33:01;23.30;;;16.02;;
21360;SDS011;10839;43.206;23.550;2023-09-18T05:35:32;20.23;;;15.02;;
21360;SDS011;10839;43.206;23.550;2023-09-18T05:37:58;20.13;;;14.13;;
21360;SDS011;10839;43.206;23.550;2023-09-18T05:40:25;20.27;;;13.75;;
21360;SDS011;10839;43.206;23.550;2023-09-18T05:42:53;16.08;;;12.15;;
21360;SDS011;10839;43.206;23.550;2023-09-18T05:45:20;14.43;;;11.00;;
21360;SDS011;10839;43.206;23.550;2023-09-18T05:47:46;13.15;;;11.38;;
21360;SDS011;10839;43.206;23.550;2023-09-18T05:50:13;13.60;;;11.00;;
21360;SDS011;10839;43.206;23.550;2023-09-18T05:52:43;11.52;;;10.23;;
21360;SDS011;10839;43.206;23.550;2023-09-18T05:55:10;14.10;;;11.10;;
21360;SDS011;10839;43.206;23.550;2023-09-18T05:57:36;21.80;;;12.05;;
21360;SDS011;10839;43.206;23.550;2023-09-18T06:00:02;27.25;;;12.45;;
21360;SDS011;10839;43.206;23.550;2023-09-18T06:02:49;16.02;;;11.52;;
21360;SDS011;10839;43.206;23.550;2023-09-18T06:05:16;13.68;;;11.52;;
21360;SDS011;10839;43.206;23.550;2023-09-18T06:07:47;15.30;;;11.05;;
21360;SDS011;10839;43.206;23.550;2023-09-18T06:10:13;13.95;;;11.80;;
21360;SDS011;10839;43.206;23.550;2023-09-18T06:12:40;18.38;;;12.77;;
21360;SDS011;10839;43.206;23.550;2023-09-18T06:15:06;15.18;;;13.02;;
21360;SDS011;10839;43.206;23.550;2023-09-18T06:17:36;21.90;;;14.18;;
21360;SDS011;10839;43.206;23.550;2023-09-18T06:20:05;19.90;;;13.35;;
21360;SDS011;10839;43.206;23.550;2023-09-18T06:22:38;20.45;;;13.90;;
21360;SDS011;10839;43.206;23.550;2023-09-18T06:25:05;21.10;;;15.55;;
21360;SDS011;10839;43.206;23.550;2023-09-18T06:27:34;16.90;;;14.88;;
21360;SDS011;10839;43.206;23.550;2023-09-18T06:30:02;19.02;;;15.70;;
21360;SDS011;10839;43.206;23.550;2023-09-18T06:32:29;20.77;;;15.43;;
21360;SDS011;10839;43.206;23.550;2023-09-18T06:34:55;21.60;;;15.48;;
21360;SDS011;10839;43.206;23.550;2023-09-18T06:37:23;24.92;;;14.95;;
21360;SDS011;10839;43.206;23.550;2023-09-18T06:39:50;22.88;;;14.60;;
21360;SDS011;10839;43.206;23.550;2023-09-18T06:42:16;16.98;;;14.23;;
21360;SDS011;10839;43.206;23.550;2023-09-18T06:44:42;21.05;;;14.60;;
21360;SDS011;10839;43.206;23.550;2023-09-18T06:47:07;20.15;;;13.20;;
21360;SDS011;10839;43.206;23.550;2023-09-18T06:49:33;19.80;;;14.50;;
21360;SDS011;10839;43.206;23.550;2023-09-18T06:51:59;18.83;;;14.52;;
21360;SDS011;10839;43.206;23.550;2023-09-18T06:54:25;22.00;;;15.15;;
21360;SDS011;10839;43.206;23.550;2023-09-18T06:56:51;17.10;;;13.45;;
21360;SDS011;10839;43.206;23.550;2023-09-18T06:59:18;18.00;;;12.40;;
21360;SDS011;10839;43.206;23.550;2023-09-18T07:01:44;21.55;;;12.27;;
21360;SDS011;10839;43.206;23.550;2023-09-18T07:04:09;29.10;;;12.52;;
21360;SDS011;10839;43.206;23.550;2023-09-18T07:06:35;17.83;;;12.90;;
21360;SDS011;10839;43.206;23.550;2023-09-18T07:09:02;15.10;;;12.82;;
21360;SDS011;10839;43.206;23.550;2023-09-18T07:11:30;19.20;;;12.07;;
21360;SDS011;10839;43.206;23.550;2023-09-18T07:13:55;14.23;;;12.82;;
21360;SDS011;10839;43.206;23.550;2023-09-18T07:16:21;18.48;;;13.18;;
21360;SDS011;10839;43.206;23.550;2023-09-18T07:18:47;19.73;;;12.10;;
21360;SDS011;10839;43.206;23.550;2023-09-18T07:21:13;18.02;;;12.50;;
21360;SDS011;10839;43.206;23.550;2023-09-18T07:23:39;18.08;;;13.00;;
21360;SDS011;10839;43.206;23.550;2023-09-18T07:26:05;16.42;;;12.90;;
21360;SDS011;10839;43.206;23.550;2023-09-18T07:28:31;20.00;;;12.45;;
21360;SDS011;10839;43.206;23.550;2023-09-18T07:31:03;17.70;;;11.90;;
21360;SDS011;10839;43.206;23.550;2023-09-18T07:33:32;17.90;;;12.68;;
21360;SDS011;10839;43.206;23.550;2023-09-18T07:35:58;17.23;;;11.57;;
21360;SDS011;10839;43.206;23.550;2023-09-18T07:38:24;14.27;;;12.20;;
21360;SDS011;10839;43.206;23.550;2023-09-18T07:40:50;15.05;;;12.02;;
21360;SDS011;10839;43.206;23.550;2023-09-18T07:43:16;12.80;;;11.35;;
21360;SDS011;10839;43.206;23.550;2023-09-18T07:45:41;15.55;;;12.95;;
21360;SDS011;10839;43.206;23.550;2023-09-18T07:48:07;14.50;;;12.90;;
21360;SDS011;10839;43.206;23.550;2023-09-18T07:50:36;17.58;;;12.95;;
21360;SDS011;10839;43.206;23.550;2023-09-18T07:53:02;14.93;;;13.20;;
21360;SDS011;10839;43.206;23.550;2023-09-18T07:55:28;15.63;;;12.55;;
21360;SDS011;10839;43.206;23.550;2023-09-18T07:57:55;17.80;;;15.13;;
21360;SDS011;10839;43.206;23.550;2023-09-18T08:00:21;21.05;;;15.20;;
21360;SDS011;10839;43.206;23.550;2023-09-18T08:02:48;18.60;;;14.77;;
21360;SDS011;10839;43.206;23.550;2023-09-18T08:05:16;20.48;;;14.48;;
21360;SDS011;10839;43.206;23.550;2023-09-18T08:07:42;20.95;;;14.80;;
21360;SDS011;10839;43.206;23.550;2023-09-18T08:10:09;21.85;;;17.73;;
21360;SDS011;10839;43.206;23.550;2023-09-18T08:12:35;22.08;;;17.17;;
21360;SDS011;10839;43.206;23.550;2023-09-18T08:15:01;21.00;;;15.45;;
21360;SDS011;10839;43.206;23.550;2023-09-18T08:17:28;34.13;;;20.98;;
21360;SDS011;10839;43.206;23.550;2023-09-18T08:19:54;41.47;;;22.55;;
21360;SDS011;10839;43.206;23.550;2023-09-18T08:22:21;28.05;;;18.67;;
21360;SDS011;10839;43.206;23.550;2023-09-18T08:24:47;43.25;;;25.00;;
21360;SDS011;10839;43.206;23.550;2023-09-18T08:27:17;58.47;;;30.40;;
21360;SDS011;10839;43.206;23.550;2023-09-18T08:29:43;58.15;;;31.10;;
21360;SDS011;10839;43.206;23.550;2023-09-18T08:32:09;35.70;;;22.77;;
21360;SDS011;10839;43.206;23.550;2023-09-18T08:34:35;27.50;;;18.30;;
21360;SDS011;10839;43.206;23.550;2023-09-18T08:37:01;27.38;;;16.92;;
21360;SDS011;10839;43.206;23.550;2023-09-18T08:39:28;18.35;;;15.18;;
21360;SDS011;10839;43.206;23.550;2023-09-18T08:41:56;24.27;;;17.45;;
21360;SDS011;10839;43.206;23.550;2023-09-18T08:44:26;38.33;;;22.05;;
21360;SDS011;10839;43.206;23.550;2023-09-18T08:46:53;29.45;;;19.30;;
21360;SDS011;10839;43.206;23.550;2023-09-18T08:49:21;20.10;;;17.05;;
21360;SDS011;10839;43.206;23.550;2023-09-18T08:51:49;28.88;;;20.95;;
21360;SDS011;10839;43.206;23.550;2023-09-18T08:54:17;22.83;;;15.93;;
21360;SDS011;10839;43.206;23.550;2023-09-18T08:56:43;20.02;;;15.70;;
21360;SDS011;10839;43.206;23.550;2023-09-18T08:59:09;18.73;;;14.20;;
21360;SDS011;10839;43.206;23.550;2023-09-18T09:01:36;19.42;;;15.80;;
21360;SDS011;10839;43.206;23.550;2023-09-18T09:04:02;23.50;;;16.30;;
21360;SDS011;10839;43.206;23.550;2023-09-18T09:06:29;21.63;;;16.17;;
21360;SDS011;10839;43.206;23.550;2023-09-18T09:08:56;24.38;;;15.93;;
21360;SDS011;10839;43.206;23.550;2023-09-18T09:11:22;23.02;;;16.30;;
21360;SDS011;10839;43.206;23.550;2023-09-18T09:13:54;20.83;;;16.13;;
21360;SDS011;10839;43.206;23.550;2023-09-18T09:16:46;19.52;;;15.25;;
21360;SDS011;10839;43.206;23.550;2023-09-18T09:19:17;20.65;;;15.55;;
21360;SDS011;10839;43.206;23.550;2023-09-18T09:21:44;19.30;;;15.15;;
21360;SDS011;10839;43.206;23.550;2023-09-18T09:24:10;21.83;;;15.90;;
21360;SDS011;10839;43.206;23.550;2023-09-18T09:26:40;21.08;;;15.02;;
21360;SDS011;10839;43.206;23.550;2023-09-18T09:29:14;19.08;;;15.13;;
21360;SDS011;10839;43.206;23.550;2023-09-18T09:31:45;18.83;;;14.48;;
21360;SDS011;10839;43.206;23.550;2023-09-18T09:34:11;22.38;;;15.80;;
21360;SDS011;10839;43.206;23.550;2023-09-18T09:36:52;21.00;;;15.48;;
21360;SDS011;10839;43.206;23.550;2023-09-18T09:39:19;18.73;;;14.48;;
21360;SDS011;10839;43.206;23.550;2023-09-18T09:41:47;16.73;;;13.50;;
21360;SDS011;10839;43.206;23.550;2023-09-18T09:44:14;18.77;;;13.60;;
21360;SDS011;10839;43.206;23.550;2023-09-18T09:46:47;17.95;;;13.20;;
21360;SDS011;10839;43.206;23.550;2023-09-18T09:49:14;21.25;;;15.30;;
21360;SDS011;10839;43.206;23.550;2023-09-18T09:51:41;21.00;;;16.13;;
21360;SDS011;10839;43.206;23.550;2023-09-18T09:54:07;21.88;;;14.07;;
21360;SDS011;10839;43.206;23.550;2023-09-18T09:56:40;20.55;;;16.30;;
21360;SDS011;10839;43.206;23.550;2023-09-18T09:59:09;21.35;;;15.45;;
21360;SDS011;10839;43.206;23.550;2023-09-18T10:01:37;16.33;;;13.35;;
21360;SDS011;10839;43.206;23.550;2023-09-18T10:04:04;18.23;;;12.60;;
21360;SDS011;10839;43.206;23.550;2023-09-18T10:06:34;20.20;;;12.82;;
21360;SDS011;10839;43.206;23.550;2023-09-18T10:09:04;16.50;;;12.75;;
21360;SDS011;10839;43.206;23.550;2023-09-18T10:11:33;15.18;;;13.25;;
21360;SDS011;10839;43.206;23.550;2023-09-18T10:14:04;18.88;;;12.50;;
21360;SDS011;10839;43.206;23.550;2023-09-18T10:16:39;22.60;;;16.85;;
21360;SDS011;10839;43.206;23.550;2023-09-18T10:19:09;19.52;;;16.85;;
21360;SDS011;10839;43.206;23.550;2023-09-18T10:21:53;15.95;;;13.77;;
21360;SDS011;10839;43.206;23.550;2023-09-18T10:24:53;19.25;;;14.23;;
21360;SDS011;10839;43.206;23.550;2023-09-18T10:27:26;17.30;;;13.70;;
21360;SDS011;10839;43.206;23.550;2023-09-18T10:29:53;16.08;;;12.07;;
21360;SDS011;10839;43.206;23.550;2023-09-18T10:32:21;15.90;;;11.88;;
21360;SDS011;10839;43.206;23.550;2023-09-18T10:34:49;14.73;;;11.35;;
21360;SDS011;10839;43.206;23.550;2023-09-18T10:37:15;14.95;;;11.77;;
21360;SDS011;10839;43.206;23.550;2023-09-18T10:39:43;15.85;;;12.48;;
21360;SDS011;10839;43.206;23.550;2023-09-18T10:42:11;18.45;;;12.40;;
21360;SDS011;10839;43.206;23.550;2023-09-18T10:44:39;14.68;;;11.63;;
21360;SDS011;10839;43.206;23.550;2023-09-18T10:47:06;18.38;;;12.23;;
21360;SDS011;10839;43.206;23.550;2023-09-18T10:49:34;17.20;;;12.13;;
21360;SDS011;10839;43.206;23.550;2023-09-18T10:52:01;18.35;;;12.40;;
21360;SDS011;10839;43.206;23.550;2023-09-18T10:54:29;17.20;;;11.95;;
21360;SDS011;10839;43.206;23.550;2023-09-18T10:56:56;18.63;;;12.52;;
21360;SDS011;10839;43.206;23.550;2023-09-18T10:59:23;36.28;;;29.67;;
21360;SDS011;10839;43.206;23.550;2023-09-18T11:01:49;21.95;;;19.23;;
21360;SDS011;10839;43.206;23.550;2023-09-18T11:04:19;21.83;;;16.10;;
21360;SDS011;10839;43.206;23.550;2023-09-18T11:09:22;15.13;;;13.48;;
21360;SDS011;10839;43.206;23.550;2023-09-18T11:14:47;17.30;;;12.48;;
21360;SDS011;10839;43.206;23.550;2023-09-18T11:17:31;15.10;;;10.75;;
21360;SDS011;10839;43.206;23.550;2023-09-18T11:23:33;12.85;;;10.38;;
21360;SDS011;10839;43.206;23.550;2023-09-18T11:25:41;16.48;;;11.40;;
21360;SDS011;10839;43.206;23.550;2023-09-18T11:28:13;14.95;;;11.10;;
21360;SDS011;10839;43.206;23.550;2023-09-18T11:30:50;11.63;;;10.38;;
21360;SDS011;10839;43.206;23.550;2023-09-18T11:33:37;14.80;;;13.30;;
21360;SDS011;10839;43.206;23.550;2023-09-18T11:36:05;23.95;;;19.38;;
21360;SDS011;10839;43.206;23.550;2023-09-18T11:39:01;29.63;;;26.33;;
21360;SDS011;10839;43.206;23.550;2023-09-18T11:41:33;16.63;;;12.68;;
21360;SDS011;10839;43.206;23.550;2023-09-18T11:46:39;14.25;;;11.93;;
21360;SDS011;10839;43.206;23.550;2023-09-18T11:49:10;13.05;;;10.98;;
21360;SDS011;10839;43.206;23.550;2023-09-18T11:51:37;25.27;;;17.85;;
21360;SDS011;10839;43.206;23.550;2023-09-18T11:54:05;25.20;;;19.10;;
21360;SDS011;10839;43.206;23.550;2023-09-18T11:56:33;42.65;;;30.90;;
21360;SDS011;10839;43.206;23.550;2023-09-18T11:58:59;43.75;;;34.45;;
21360;SDS011;10839;43.206;23.550;2023-09-18T12:01:30;24.63;;;20.20;;
21360;SDS011;10839;43.206;23.550;2023-09-18T12:04:00;19.90;;;16.48;;
21360;SDS011;10839;43.206;23.550;2023-09-18T12:06:27;13.30;;;9.88;;
21360;SDS011;10839;43.206;23.550;2023-09-18T12:08:53;12.32;;;9.93;;
21360;SDS011;10839;43.206;23.550;2023-09-18T12:11:19;15.27;;;10.43;;
21360;SDS011;10839;43.206;23.550;2023-09-18T12:13:47;12.88;;;9.15;;
21360;SDS011;10839;43.206;23.550;2023-09-18T12:16:16;10.18;;;8.85;;
21360;SDS011;10839;43.206;23.550;2023-09-18T12:18:46;10.88;;;9.10;;
21360;SDS011;10839;43.206;23.550;2023-09-18T12:21:13;13.43;;;8.82;;
21360;SDS011;10839;43.206;23.550;2023-09-18T12:23:41;11.23;;;9.30;;
21360;SDS011;10839;43.206;23.550;2023-09-18T12:26:10;10.75;;;8.90;;
21360;SDS011;10839;43.206;23.550;2023-09-18T12:28:40;16.77;;;9.80;;
21360;SDS011;10839;43.206;23.550;2023-09-18T12:31:11;10.65;;;8.02;;
21360;SDS011;10839;43.206;23.550;2023-09-18T12:33:41;8.68;;;6.97;;
21360;SDS011;10839;43.206;23.550;2023-09-18T12:36:13;10.27;;;7.72;;
21360;SDS011;10839;43.206;23.550;2023-09-18T12:38:45;9.52;;;7.70;;
21360;SDS011;10839;43.206;23.550;2023-09-18T12:41:21;11.35;;;7.63;;
21360;SDS011;10839;43.206;23.550;2023-09-18T12:43:47;10.07;;;7.97;;
21360;SDS011;10839;43.206;23.550;2023-09-18T12:46:13;14.10;;;8.07;;
21360;SDS011;10839;43.206;23.550;2023-09-18T12:48:39;15.93;;;9.77;;
21360;SDS011;10839;43.206;23.550;2023-09-18T12:51:11;13.13;;;10.00;;
21360;SDS011;10839;43.206;23.550;2023-09-18T12:53:37;19.42;;;12.63;;
21360;SDS011;10839;43.206;23.550;2023-09-18T12:56:10;10.10;;;7.80;;
21360;SDS011;10839;43.206;23.550;2023-09-18T12:58:39;12.60;;;8.73;;
21360;SDS011;10839;43.206;23.550;2023-09-18T13:01:06;12.25;;;7.97;;
21360;SDS011;10839;43.206;23.550;2023-09-18T13:03:43;11.50;;;7.72;;
21360;SDS011;10839;43.206;23.550;2023-09-18T13:06:11;11.20;;;8.25;;
21360;SDS011;10839;43.206;23.550;2023-09-18T13:08:43;10.90;;;8.25;;
21360;SDS011;10839;43.206;23.550;2023-09-18T13:11:10;10.98;;;7.60;;
21360;SDS011;10839;43.206;23.550;2023-09-18T13:13:37;8.35;;;7.35;;
21360;SDS011;10839;43.206;23.550;2023-09-18T13:16:07;12.48;;;7.32;;
21360;SDS011;10839;43.206;23.550;2023-09-18T13:18:38;13.45;;;8.23;;
21360;SDS011;10839;43.206;23.550;2023-09-18T13:21:10;12.98;;;8.38;;
21360;SDS011;10839;43.206;23.550;2023-09-18T13:23:42;10.82;;;8.23;;
21360;SDS011;10839;43.206;23.550;2023-09-18T13:26:08;9.18;;;7.57;;
21360;SDS011;10839;43.206;23.550;2023-09-18T13:28:34;11.23;;;7.80;;
21360;SDS011;10839;43.206;23.550;2023-09-18T13:31:01;11.85;;;9.60;;
21360;SDS011;10839;43.206;23.550;2023-09-18T13:33:33;11.07;;;8.45;;
21360;SDS011;10839;43.206;23.550;2023-09-18T13:36:06;10.75;;;8.07;;
21360;SDS011;10839;43.206;23.550;2023-09-18T13:38:32;12.88;;;7.20;;
21360;SDS011;10839;43.206;23.550;2023-09-18T13:40:58;12.07;;;7.82;;
21360;SDS011;10839;43.206;23.550;2023-09-18T13:43:23;11.50;;;7.18;;
21360;SDS011;10839;43.206;23.550;2023-09-18T13:45:50;10.32;;;7.68;;
21360;SDS011;10839;43.206;23.550;2023-09-18T13:48:17;11.70;;;7.47;;
21360;SDS011;10839;43.206;23.550;2023-09-18T13:50:43;13.02;;;8.55;;
21360;SDS011;10839;43.206;23.550;2023-09-18T13:53:10;9.57;;;7.18;;
21360;SDS011;10839;43.206;23.550;2023-09-18T13:55:36;11.68;;;7.57;;
21360;SDS011;10839;43.206;23.550;2023-09-18T13:58:02;11.98;;;7.90;;
21360;SDS011;10839;43.206;23.550;2023-09-18T14:00:28;8.98;;;6.65;;
21360;SDS011;10839;43.206;23.550;2023-09-18T14:02:54;8.40;;;6.35;;
21360;SDS011;10839;43.206;23.550;2023-09-18T14:05:20;13.95;;;6.70;;
21360;SDS011;10839;43.206;23.550;2023-09-18T14:07:46;9.23;;;6.90;;
21360;SDS011;10839;43.206;23.550;2023-09-18T14:10:13;15.23;;;13.02;;
21360;SDS011;10839;43.206;23.550;2023-09-18T14:12:39;10.93;;;9.30;;
21360;SDS011;10839;43.206;23.550;2023-09-18T14:15:06;9.27;;;6.20;;
21360;SDS011;10839;43.206;23.550;2023-09-18T14:17:33;12.25;;;7.28;;
21360;SDS011;10839;43.206;23.550;2023-09-18T14:20:00;9.73;;;7.70;;
21360;SDS011;10839;43.206;23.550;2023-09-18T14:22:32;10.20;;;7.45;;
21360;SDS011;10839;43.206;23.550;2023-09-18T14:24:59;7.88;;;6.60;;
21360;SDS011;10839;43.206;23.550;2023-09-18T14:27:25;10.43;;;5.45;;
21360;SDS011;10839;43.206;23.550;2023-09-18T14:29:51;9.70;;;5.82;;
21360;SDS011;10839;43.206;23.550;2023-09-18T14:32:17;8.25;;;5.78;;